createdAt,value
2019-05-09T00:02:15.586Z,3.73
2019-05-09T00:04:45.536Z,3.77
2019-05-09T00:07:16.000Z,3.40
2019-05-09T00:09:46.157Z,3.20
2019-05-09T00:12:15.593Z,3.50
2019-05-09T00:14:45.355Z,3.30
2019-05-09T00:17:15.612Z,3.30
2019-05-09T00:19:45.616Z,3.47
2019-05-09T00:22:15.354Z,3.43
2019-05-09T00:24:46.084Z,3.20
2019-05-09T00:29:49.750Z,3.70
2019-05-09T00:32:26.604Z,3.60
2019-05-09T00:35:14.129Z,3.97
2019-05-09T00:38:00.474Z,3.47
2019-05-09T00:40:30.454Z,3.50
2019-05-09T00:43:00.470Z,3.50
2019-05-09T00:45:47.898Z,3.90
2019-05-09T00:48:19.547Z,3.37
2019-05-09T00:50:49.336Z,3.10
2019-05-09T00:53:19.181Z,3.50
2019-05-09T00:55:48.995Z,3.40
2019-05-09T00:58:18.503Z,3.40
2019-05-09T01:00:48.140Z,3.40
2019-05-09T01:03:17.580Z,3.73
2019-05-09T01:05:47.645Z,3.50
2019-05-09T01:08:17.335Z,3.70
2019-05-09T01:10:46.863Z,4.17
2019-05-09T01:13:16.305Z,3.87
2019-05-09T01:15:45.758Z,3.87
2019-05-09T01:18:15.203Z,4.17
2019-05-09T01:20:44.716Z,4.17
2019-05-09T01:23:14.432Z,4.20
2019-05-09T01:25:43.877Z,4.00
2019-05-09T01:28:14.004Z,3.87
2019-05-09T01:30:43.938Z,4.30
2019-05-09T01:33:15.504Z,4.30
2019-05-09T01:35:44.962Z,4.30
2019-05-09T01:38:14.463Z,4.53
2019-05-09T01:40:44.031Z,4.70
2019-05-09T01:43:13.973Z,5.10
2019-05-09T01:45:47.037Z,4.90
2019-05-09T01:48:14.950Z,5.30
2019-05-09T01:50:44.397Z,5.40
2019-05-09T01:53:15.485Z,6.03
2019-05-09T01:56:00.790Z,5.53
2019-05-09T01:58:34.184Z,5.87
2019-05-09T02:01:05.501Z,5.30
2019-05-09T02:03:35.892Z,5.37
2019-05-09T02:06:05.678Z,5.87
2019-05-09T02:08:35.119Z,5.50
2019-05-09T02:11:04.970Z,6.23
2019-05-09T02:13:34.780Z,5.60
2019-05-09T02:16:23.450Z,6.03
2019-05-09T02:18:55.005Z,5.87
2019-05-09T02:21:24.695Z,4.70
2019-05-09T02:23:55.091Z,5.20
2019-05-09T02:26:24.823Z,4.40
2019-05-09T02:28:54.270Z,4.83
2019-05-09T02:31:24.722Z,4.63
2019-05-09T02:33:54.787Z,5.03
2019-05-09T02:36:24.233Z,5.17
2019-05-09T02:38:53.673Z,4.43
2019-05-09T02:41:23.187Z,4.03
2019-05-09T02:43:52.639Z,5.17
2019-05-09T02:46:24.046Z,5.00
2019-05-09T02:48:53.479Z,6.27
2019-05-09T02:51:23.278Z,5.73
2019-05-09T02:53:52.712Z,6.27
2019-05-09T02:56:22.405Z,4.90
2019-05-09T02:59:11.787Z,4.90
2019-05-09T03:01:42.868Z,5.10
2019-05-09T03:04:12.543Z,4.03
2019-05-09T03:06:41.995Z,4.20
2019-05-09T03:09:11.427Z,3.50
2019-05-09T03:11:40.876Z,3.50
2019-05-09T03:14:11.196Z,3.50
2019-05-09T03:16:40.646Z,3.37
2019-05-09T03:19:10.089Z,3.27
2019-05-09T03:21:41.501Z,3.40
2019-05-09T03:24:10.926Z,3.30
2019-05-09T03:26:42.016Z,3.63
2019-05-09T03:29:13.093Z,3.00
2019-05-09T03:31:43.645Z,3.10
2019-05-09T03:34:13.093Z,3.40
2019-05-09T03:36:43.265Z,3.30
2019-05-09T03:39:12.697Z,3.10
2019-05-09T03:41:42.441Z,3.50
2019-05-09T03:44:11.879Z,3.20
2019-05-09T03:46:47.634Z,3.23
2019-05-09T03:49:18.778Z,3.30
2019-05-09T03:51:48.372Z,3.60
2019-05-09T03:54:18.384Z,4.00
2019-05-09T03:56:52.633Z,3.17
2019-05-09T03:59:22.852Z,3.27
2019-05-09T04:01:52.303Z,3.33
2019-05-09T04:04:21.738Z,3.33
2019-05-09T04:06:51.551Z,3.80
2019-05-09T04:09:21.252Z,3.70
2019-05-09T04:11:50.701Z,3.20
2019-05-09T04:14:21.793Z,3.30
2019-05-09T04:16:51.232Z,3.40
2019-05-09T04:19:20.664Z,3.70
2019-05-09T04:21:50.119Z,3.53
2019-05-09T04:24:19.560Z,3.80
2019-05-09T04:26:53.533Z,3.27
2019-05-09T04:29:22.965Z,3.60
2019-05-09T04:31:52.433Z,4.10
2019-05-09T04:34:21.874Z,4.47
2019-05-09T04:36:51.647Z,4.60
2019-05-09T04:39:23.662Z,4.97
2019-05-09T04:41:55.078Z,5.10
2019-05-09T04:44:25.272Z,6.00
2019-05-09T04:47:01.662Z,5.60
2019-05-09T04:49:29.656Z,5.33
2019-05-09T04:51:58.435Z,5.90
2019-05-09T04:54:28.135Z,5.90
2019-05-09T04:56:57.671Z,6.10
2019-05-09T04:59:28.379Z,6.40
2019-05-09T05:02:18.123Z,6.37
2019-05-09T05:04:47.943Z,6.23
2019-05-09T05:07:18.097Z,5.77
2019-05-09T05:09:48.394Z,5.10
2019-05-09T05:12:18.753Z,5.53
2019-05-09T05:14:48.228Z,6.03
2019-05-09T05:17:18.077Z,5.00
2019-05-09T05:19:48.443Z,4.93
2019-05-09T05:22:22.276Z,4.80
2019-05-09T05:24:55.840Z,5.10
2019-05-09T05:27:24.521Z,4.93
2019-05-09T05:29:53.955Z,5.00
2019-05-09T05:32:25.046Z,4.37
2019-05-09T05:34:58.710Z,4.30
2019-05-09T05:37:28.212Z,4.47
2019-05-09T05:39:58.319Z,4.30
2019-05-09T05:42:28.431Z,4.23
2019-05-09T05:44:58.409Z,3.73
2019-05-09T05:47:29.525Z,4.20
2019-05-09T05:49:58.983Z,3.53
2019-05-09T05:52:28.409Z,2.03
2019-05-09T05:54:58.260Z,3.00
2019-05-09T05:57:28.105Z,2.57
2019-05-09T05:59:58.493Z,2.23
2019-05-09T06:02:28.567Z,2.20
2019-05-09T06:04:58.084Z,2.20
2019-05-09T06:07:28.515Z,1.60
2019-05-09T06:09:58.051Z,1.87
2019-05-09T06:12:27.777Z,1.60
2019-05-09T06:14:58.168Z,1.80
2019-05-09T06:17:28.638Z,1.90
2019-05-09T06:19:59.077Z,1.70
2019-05-09T06:22:28.633Z,1.60
2019-05-09T06:24:58.366Z,1.60
2019-05-09T06:27:28.232Z,1.50
2019-05-09T06:29:58.285Z,1.50
2019-05-09T06:32:28.053Z,1.57
2019-05-09T06:34:57.969Z,1.90
2019-05-09T06:37:27.822Z,1.63
2019-05-09T06:39:58.284Z,1.60
2019-05-09T06:42:28.587Z,1.50
2019-05-09T06:45:07.739Z,1.60
2019-05-09T06:47:39.431Z,1.63
2019-05-09T06:50:10.521Z,1.60
2019-05-09T06:52:39.955Z,1.50
2019-05-09T06:55:09.485Z,1.80
2019-05-09T06:57:42.829Z,1.50
2019-05-09T07:00:12.717Z,1.73
2019-05-09T07:02:47.857Z,1.50
2019-05-09T07:05:25.056Z,1.37
2019-05-09T07:08:05.127Z,1.50
2019-05-09T07:10:34.874Z,1.57
2019-05-09T07:13:04.387Z,1.63
2019-05-09T07:15:33.839Z,1.57
2019-05-09T07:18:03.287Z,1.43
2019-05-09T07:20:33.209Z,1.57
2019-05-09T07:23:02.642Z,1.37
2019-05-09T07:25:37.773Z,1.10
2019-05-09T07:28:07.745Z,1.53
2019-05-09T07:30:41.530Z,1.37
2019-05-09T07:33:30.642Z,1.50
2019-05-09T07:36:01.853Z,1.20
2019-05-09T07:38:32.315Z,1.43
2019-05-09T07:41:02.113Z,1.30
2019-05-09T07:43:31.831Z,1.20
2019-05-09T07:46:04.649Z,1.30
2019-05-09T07:48:35.135Z,1.20
2019-05-09T07:51:04.647Z,1.37
2019-05-09T07:53:34.253Z,1.10
2019-05-09T07:56:03.702Z,1.57
2019-05-09T07:58:33.137Z,1.40
2019-05-09T08:01:02.596Z,1.50
2019-05-09T08:03:32.303Z,1.17
2019-05-09T08:06:01.757Z,1.20
2019-05-09T08:08:31.191Z,1.03
2019-05-09T08:11:01.002Z,1.27
2019-05-09T08:13:30.452Z,1.10
2019-05-09T08:15:59.909Z,1.60
2019-05-09T08:18:29.344Z,1.00
2019-05-09T08:20:58.792Z,1.17
2019-05-09T08:23:28.221Z,1.20
2019-05-09T08:25:58.088Z,1.07
2019-05-09T08:28:28.135Z,1.10
2019-05-09T08:30:58.570Z,1.17
2019-05-09T08:33:28.848Z,1.30
2019-05-09T08:35:58.674Z,1.20
2019-05-09T08:38:28.551Z,1.20
2019-05-09T08:41:09.098Z,1.20
2019-05-09T08:43:39.437Z,1.30
2019-05-09T08:46:09.139Z,1.40
2019-05-09T08:48:38.591Z,1.17
2019-05-09T08:51:09.730Z,1.13
2019-05-09T08:53:39.167Z,1.20
2019-05-09T08:56:12.491Z,1.50
2019-05-09T08:58:39.749Z,1.30
2019-05-09T09:01:11.053Z,1.20
2019-05-09T09:03:40.380Z,1.13
2019-05-09T09:06:09.814Z,1.23
2019-05-09T09:08:39.297Z,1.40
2019-05-09T09:11:09.022Z,1.30
2019-05-09T09:13:38.799Z,1.27
2019-05-09T09:16:18.458Z,1.27
2019-05-09T09:18:39.417Z,1.40
2019-05-09T09:21:08.849Z,1.97
2019-05-09T09:23:44.231Z,1.30
2019-05-09T09:26:09.421Z,1.40
2019-05-09T09:28:38.879Z,1.13
2019-05-09T09:31:08.402Z,1.10
2019-05-09T09:33:37.891Z,1.20
2019-05-09T09:36:08.737Z,1.10
2019-05-09T09:38:38.756Z,1.30
2019-05-09T09:41:08.194Z,1.10
2019-05-09T09:43:38.386Z,1.20
2019-05-09T09:46:14.339Z,1.23
2019-05-09T09:48:39.855Z,1.17
2019-05-09T09:51:09.571Z,1.37
2019-05-09T09:53:39.372Z,1.00
2019-05-09T09:56:08.937Z,1.10
2019-05-09T09:58:38.331Z,1.30
2019-05-09T10:01:21.827Z,1.20
2019-05-09T10:03:52.915Z,1.20
2019-05-09T10:06:22.347Z,1.20
2019-05-09T10:08:51.789Z,1.00
2019-05-09T10:11:21.224Z,0.90
2019-05-09T10:13:52.051Z,1.07
2019-05-09T10:16:29.154Z,1.17
2019-05-09T10:19:10.846Z,1.30
2019-05-09T10:21:45.299Z,1.30
2019-05-09T10:24:17.360Z,1.10
2019-05-09T10:27:04.255Z,0.80
2019-05-09T10:29:34.244Z,1.33
2019-05-09T10:32:08.797Z,1.27
2019-05-09T10:34:37.881Z,1.20
2019-05-09T10:37:07.841Z,1.40
2019-05-09T10:39:38.146Z,1.30
2019-05-09T10:42:25.548Z,1.40
2019-05-09T10:44:59.390Z,1.20
2019-05-09T10:47:34.058Z,1.27
2019-05-09T10:50:05.057Z,1.10
2019-05-09T10:52:34.557Z,1.50
2019-05-09T10:55:04.966Z,0.93
2019-05-09T10:57:34.390Z,1.20
2019-05-09T11:00:08.695Z,1.20
2019-05-09T11:02:37.520Z,1.20
2019-05-09T11:05:08.372Z,1.00
2019-05-09T11:07:38.181Z,0.90
2019-05-09T11:10:24.129Z,1.10
2019-05-09T11:12:38.876Z,1.13
2019-05-09T11:15:09.215Z,1.27
2019-05-09T11:17:39.043Z,1.13
2019-05-09T11:20:09.054Z,1.30
2019-05-09T11:22:38.765Z,1.22
2019-05-09T11:25:08.832Z,1.10
2019-05-09T11:27:38.896Z,1.30
2019-05-09T11:30:08.602Z,1.17
2019-05-09T11:32:38.708Z,1.40
2019-05-09T11:37:39.348Z,1.40
2019-05-09T11:40:08.796Z,1.33
2019-05-09T11:41:02.070Z,1.10
2019-05-09T11:42:38.671Z,1.17
2019-05-09T11:45:08.131Z,1.20
2019-05-09T11:47:45.449Z,1.23
2019-05-09T11:50:09.082Z,1.20
2019-05-09T11:52:38.524Z,1.25
2019-05-09T11:55:27.459Z,1.30
2019-05-09T11:57:39.718Z,1.37
2019-05-09T12:00:10.407Z,1.60
2019-05-09T12:02:39.843Z,1.53
2019-05-09T12:05:09.361Z,1.30
2019-05-09T12:07:38.794Z,1.47
2019-05-09T12:10:08.631Z,1.50
2019-05-09T12:12:39.033Z,1.20
2019-05-09T12:15:09.211Z,1.23
2019-05-09T12:17:50.918Z,1.07
2019-05-09T12:20:13.471Z,1.60
2019-05-09T12:22:41.777Z,3.70
2019-05-09T12:25:11.508Z,1.50
2019-05-09T12:27:40.950Z,1.40
2019-05-09T12:30:11.066Z,1.30
2019-05-09T12:32:40.510Z,1.43
2019-05-09T12:35:10.030Z,1.40
2019-05-09T12:37:39.587Z,1.23
2019-05-09T12:40:09.500Z,1.20
2019-05-09T12:42:39.541Z,1.40
2019-05-09T12:45:09.473Z,1.50
2019-05-09T12:47:39.844Z,1.50
2019-05-09T12:50:10.178Z,1.33
2019-05-09T12:52:39.684Z,1.35
2019-05-09T12:55:12.680Z,1.42
2019-05-09T12:57:40.437Z,1.20
2019-05-09T13:00:10.427Z,1.12
2019-05-09T13:02:40.036Z,1.45
2019-05-09T13:05:09.805Z,1.00
2019-05-09T13:07:42.390Z,1.20
2019-05-09T13:10:09.843Z,1.40
2019-05-09T13:12:39.122Z,1.10
2019-05-09T13:15:09.060Z,1.20
2019-05-09T13:17:40.283Z,1.30
2019-05-09T13:20:10.734Z,1.10
2019-05-09T13:22:40.171Z,1.30
2019-05-09T13:25:09.830Z,1.40
2019-05-09T13:27:39.327Z,1.25
2019-05-09T13:30:09.491Z,1.37
2019-05-09T13:32:38.931Z,1.33
2019-05-09T13:35:08.614Z,1.75
2019-05-09T13:37:38.439Z,1.30
2019-05-09T13:40:08.563Z,1.70
2019-05-09T13:42:39.633Z,1.50
2019-05-09T13:45:09.417Z,1.10
2019-05-09T13:47:38.854Z,1.20
2019-05-09T13:50:09.105Z,1.27
2019-05-09T13:52:38.581Z,1.33
2019-05-09T13:55:08.826Z,1.30
2019-05-09T13:57:39.011Z,1.20
2019-05-09T14:00:09.255Z,1.17
2019-05-09T14:02:38.757Z,1.27
2019-05-09T14:05:09.325Z,1.53
2019-05-09T14:07:39.003Z,1.40
2019-05-09T14:10:10.412Z,1.00
2019-05-09T14:12:40.011Z,1.40
2019-05-09T14:15:09.858Z,1.27
2019-05-09T14:17:49.267Z,1.30
2019-05-09T14:20:10.912Z,1.37
2019-05-09T14:22:40.324Z,1.00
2019-05-09T14:25:11.570Z,1.40
2019-05-09T14:27:40.954Z,1.53
2019-05-09T14:30:10.577Z,1.17
2019-05-09T14:32:40.468Z,1.10
2019-05-09T14:35:10.598Z,1.20
2019-05-09T14:37:40.109Z,1.27
2019-05-09T14:40:10.476Z,1.43
2019-05-09T14:42:40.699Z,1.57
2019-05-09T14:45:10.884Z,0.97
2019-05-09T14:47:42.467Z,1.30
2019-05-09T14:50:11.666Z,1.23
2019-05-09T14:52:41.100Z,1.43
2019-05-09T14:55:10.605Z,1.27
2019-05-09T14:57:40.056Z,1.17
2019-05-09T15:00:10.239Z,1.13
2019-05-09T15:02:39.691Z,1.30
2019-05-09T15:05:09.750Z,1.35
2019-05-09T15:07:39.508Z,1.30
2019-05-09T15:10:09.182Z,1.30
2019-05-09T15:12:39.243Z,1.10
2019-05-09T15:15:09.414Z,1.22
2019-05-09T15:17:38.864Z,1.00
2019-05-09T15:20:08.942Z,1.20
2019-05-09T15:22:38.937Z,1.50
2019-05-09T15:25:10.418Z,1.10
2019-05-09T15:27:39.866Z,1.10
2019-05-09T15:30:11.229Z,1.25
2019-05-09T15:32:40.703Z,1.10
2019-05-09T15:35:10.312Z,1.12
2019-05-09T15:37:41.388Z,0.80
2019-05-09T15:40:11.903Z,1.02
2019-05-09T15:42:41.482Z,1.02
2019-05-09T15:45:10.999Z,0.80
2019-05-09T15:47:41.372Z,0.85
2019-05-09T15:50:19.314Z,0.90
2019-05-09T15:52:43.107Z,1.10
2019-05-09T15:55:12.618Z,1.20
2019-05-09T15:57:42.114Z,1.00
2019-05-09T16:00:14.508Z,0.82
2019-05-09T16:02:43.968Z,0.80
2019-05-09T16:05:13.402Z,0.93
2019-05-09T16:07:43.175Z,1.15
2019-05-09T16:10:13.289Z,0.90
2019-05-09T16:12:43.014Z,1.00
2019-05-09T16:15:12.730Z,0.80
2019-05-09T16:17:42.180Z,0.80
2019-05-09T16:20:11.765Z,1.00
2019-05-09T16:22:41.232Z,0.72
2019-05-09T16:25:10.750Z,1.00
2019-05-09T16:27:40.659Z,0.85
2019-05-09T16:30:10.262Z,1.00
2019-05-09T16:32:39.717Z,0.82
2019-05-09T16:35:09.335Z,0.90
2019-05-09T16:37:57.394Z,0.90
2019-05-09T16:40:09.935Z,0.82
2019-05-09T16:42:39.397Z,0.82
2019-05-09T16:45:09.755Z,0.98
2019-05-09T16:47:39.206Z,0.98
2019-05-09T16:50:12.118Z,0.88
2019-05-09T16:52:43.583Z,0.65
2019-05-09T16:55:13.307Z,0.88
2019-05-09T16:57:43.644Z,0.95
2019-05-09T17:00:18.395Z,0.98
2019-05-09T17:02:48.275Z,0.88
2019-05-09T17:05:18.067Z,1.00
2019-05-09T17:07:47.704Z,0.78
2019-05-09T17:10:17.834Z,0.85
2019-05-09T17:12:47.924Z,0.80
2019-05-09T17:15:19.070Z,0.87
2019-05-09T17:17:48.518Z,0.80
2019-05-09T17:20:19.609Z,0.80
2019-05-09T17:23:11.707Z,0.82
2019-05-09T17:25:38.478Z,0.65
2019-05-09T17:28:08.283Z,1.00
2019-05-09T17:30:38.523Z,0.70
2019-05-09T17:33:08.111Z,0.70
2019-05-09T17:35:38.625Z,0.73
2019-05-09T17:38:08.781Z,0.80
2019-05-09T17:40:39.325Z,0.80
2019-05-09T17:43:09.311Z,1.00
2019-05-09T17:45:41.916Z,0.90
2019-05-09T17:48:10.290Z,0.90
2019-05-09T17:50:40.101Z,0.90
2019-05-09T17:53:09.538Z,0.73
2019-05-09T17:55:38.983Z,0.90
2019-05-09T17:58:09.072Z,1.00
2019-05-09T18:00:38.550Z,1.03
2019-05-09T18:03:07.991Z,0.80
2019-05-09T18:05:38.951Z,0.87
2019-05-09T18:08:08.889Z,1.13
2019-05-09T18:10:38.360Z,1.37
2019-05-09T18:13:08.174Z,1.40
2019-05-09T18:15:38.113Z,1.90
2019-05-09T18:18:07.509Z,2.03
2019-05-09T18:20:37.946Z,1.80
2019-05-09T18:23:08.345Z,1.83
2019-05-09T18:25:38.035Z,1.70
2019-05-09T18:28:07.504Z,1.60
2019-05-09T18:30:38.841Z,1.87
2019-05-09T18:33:09.732Z,1.30
2019-05-09T18:35:39.263Z,1.40
2019-05-09T18:38:10.148Z,1.97
2019-05-09T18:40:39.603Z,2.50
2019-05-09T18:43:09.033Z,2.20
2019-05-09T18:45:38.479Z,2.50
2019-05-09T18:48:08.511Z,2.90
2019-05-09T18:50:38.057Z,2.27
2019-05-09T18:53:07.501Z,2.30
2019-05-09T18:55:36.972Z,2.20
2019-05-09T18:58:06.455Z,2.00
2019-05-09T19:00:35.916Z,2.30
2019-05-09T19:03:05.369Z,3.17
2019-05-09T19:05:34.834Z,2.93
2019-05-09T19:08:06.442Z,2.93
2019-05-09T19:10:35.919Z,2.60
2019-05-09T19:13:05.667Z,2.60
2019-05-09T19:15:42.495Z,2.40
2019-05-09T19:18:16.571Z,2.30
2019-05-09T19:20:50.922Z,2.10
2019-05-09T19:23:20.360Z,2.80
2019-05-09T19:25:49.810Z,2.07
2019-05-09T19:28:19.244Z,2.27
2019-05-09T19:30:48.732Z,2.37
2019-05-09T19:33:18.171Z,1.60
2019-05-09T19:35:47.661Z,2.17
2019-05-09T19:38:17.102Z,2.10
2019-05-09T19:40:46.542Z,2.40
2019-05-09T19:43:15.979Z,2.70
2019-05-09T19:45:45.447Z,2.40
2019-05-09T19:48:14.879Z,2.90
2019-05-09T19:50:44.324Z,3.23
2019-05-09T19:53:14.118Z,3.10
2019-05-09T19:55:43.621Z,2.80
2019-05-09T19:58:13.169Z,3.43
2019-05-09T20:00:42.667Z,3.80
2019-05-09T20:03:12.202Z,3.20
2019-05-09T20:05:41.649Z,2.90
2019-05-09T20:08:11.084Z,2.40
2019-05-09T20:10:48.036Z,2.20
2019-05-09T20:13:21.836Z,2.23
2019-05-09T20:15:51.277Z,2.23
2019-05-09T20:18:20.701Z,2.10
2019-05-09T20:20:50.184Z,2.50
2019-05-09T20:23:19.615Z,2.67
2019-05-09T20:25:49.182Z,2.70
2019-05-09T20:28:18.624Z,3.00
2019-05-09T20:30:48.430Z,2.90
2019-05-09T20:33:17.847Z,3.10
2019-05-09T20:35:47.286Z,2.77
2019-05-09T20:38:17.218Z,3.03
2019-05-09T20:40:46.848Z,2.67
2019-05-09T20:43:16.459Z,2.10
2019-05-09T20:45:46.109Z,2.60
2019-05-09T20:48:15.740Z,1.80
2019-05-09T20:50:45.420Z,2.37
2019-05-09T20:53:15.359Z,2.53
2019-05-09T20:55:45.881Z,2.30
2019-05-09T20:58:15.569Z,2.40
2019-05-09T21:00:45.200Z,2.30
2019-05-09T21:03:15.081Z,2.60
2019-05-09T21:05:44.710Z,2.33
2019-05-09T21:08:14.335Z,2.70
2019-05-09T21:10:43.974Z,2.43
2019-05-09T21:13:13.609Z,2.73
2019-05-09T21:15:43.236Z,2.50
2019-05-09T21:18:12.914Z,2.50
2019-05-09T21:20:42.578Z,2.43
2019-05-09T21:23:23.920Z,2.50
2019-05-09T21:25:43.638Z,2.47
2019-05-09T21:28:13.267Z,2.93
2019-05-09T21:30:43.532Z,2.53
2019-05-09T21:33:13.481Z,2.60
2019-05-09T21:35:42.924Z,2.70
2019-05-09T21:38:12.362Z,2.53
2019-05-09T21:40:42.125Z,2.60
2019-05-09T21:43:11.564Z,3.40
2019-05-09T21:45:40.992Z,2.80
2019-05-09T21:48:10.439Z,2.73
2019-05-09T21:50:39.867Z,2.80
2019-05-09T21:53:09.338Z,3.00
2019-05-09T21:55:38.777Z,2.60
2019-05-09T21:58:08.287Z,2.70
2019-05-09T22:00:38.961Z,2.73
2019-05-09T22:03:08.601Z,2.57
2019-05-09T22:05:38.129Z,2.70
2019-05-09T22:08:07.582Z,2.60
2019-05-09T22:10:37.029Z,2.83
2019-05-09T22:13:06.479Z,3.00
2019-05-09T22:15:36.025Z,2.93
2019-05-09T22:18:05.477Z,2.90
2019-05-09T22:20:34.922Z,2.90
2019-05-09T22:23:06.446Z,2.90
2019-05-09T22:25:35.811Z,3.13
2019-05-09T22:28:05.257Z,2.50
2019-05-09T22:30:34.706Z,2.57
2019-05-09T22:33:04.146Z,2.60
2019-05-09T22:35:33.855Z,2.67
2019-05-09T22:38:03.300Z,2.50
2019-05-09T22:40:33.096Z,2.80
2019-05-09T22:43:02.538Z,2.30
2019-05-09T22:45:31.986Z,2.93
2019-05-09T22:48:01.425Z,2.60
2019-05-09T22:50:30.918Z,2.90
2019-05-09T22:53:00.392Z,2.27
2019-05-09T22:55:30.073Z,2.63
2019-05-09T22:57:59.522Z,2.40
2019-05-09T23:00:28.961Z,2.50
2019-05-09T23:02:58.418Z,2.30
2019-05-09T23:05:27.851Z,2.57
2019-05-09T23:07:57.647Z,2.20
2019-05-09T23:10:27.082Z,2.03
2019-05-09T23:12:56.540Z,2.10
2019-05-09T23:15:26.213Z,2.20
2019-05-09T23:17:55.667Z,2.30
2019-05-09T23:20:43.224Z,2.30
2019-05-09T23:23:23.107Z,2.20
2019-05-09T23:25:52.533Z,2.13
2019-05-09T23:28:21.987Z,2.17
2019-05-09T23:30:53.075Z,2.30
2019-05-09T23:33:23.790Z,2.20
2019-05-09T23:35:53.481Z,2.30
2019-05-09T23:38:22.934Z,2.03
2019-05-09T23:40:52.375Z,1.90
2019-05-09T23:43:21.824Z,2.60
2019-05-09T23:45:51.285Z,2.23
2019-05-09T23:48:20.759Z,2.40
2019-05-09T23:50:50.192Z,2.10
2019-05-09T23:53:24.484Z,2.37
2019-05-09T23:56:11.913Z,2.23
2019-05-09T23:58:59.500Z,2.20
